Terminal Aerodrome Forecast
Issued by NWS

Home | Current Version | Previous Version | Text Only | Print | Product List | Glossary Off
Versions: 1 2 3 4 5 6 7 8 9 10 11 12 13 14 15 16 17 18 19 20 21 22 23 24 25 26 27 28 29 30 31 32 33 34 35 36 37 38 39 40 41 42 43 44 45 46 47 48 49 50

000
FTUS43 KLOT 301130
TAFGYY
TAF
KGYY 301130Z 3012/3112 03011KT 6SM SHRA VCTS SCT008 OVC012CB
      TEMPO 3012/3013 03011G25KT 4SM SHRA OVC008
     FM301400 05010KT P6SM VCSH SCT020 BKN035
     FM301600 03010KT 6SM -SHRA VCTS SCT025 BKN035CB
      TEMPO 3016/3018 4SM SHRA OVC025
     FM302000 03010KT P6SM BKN035
     FM310300 03005KT P6SM SCT040=

USA.gov is the U.S. government's official web portal to all federal, state and local government web resources and services.